Terminal Aerodrome Forecast
Issued by NWS Paducah, KY

Home | Current Version | Previous Version | Text Only | Print | Product List | Glossary On
Versions: 1 2 3 4 5 6 7 8 9 10 11 12 13 14 15 16 17 18 19 20
000
FTUS43 KPAH 230500
TAFEVV
TAF
KEVV 230520Z 2306/2406 VRB02KT P6SM BKN035 BKN080
     FM231400 VRB03KT P6SM VCTS SCT050CB BKN090
     FM240000 VRB03KT P6SM SCT250=

USA.gov is the U.S. government's official web portal to all federal, state and local government web resources and services.